Time,TemperatureF,DewpointF,PressureIn,WindDirection,WindDirectionDegrees,WindSpeedMPH,WindSpeedGustMPH,Humidity,HourlyPrecipIn,Conditions,Clouds,dailyrainin,SoftwareType,DateUTC
2013-02-19 00:02:00,47.0,30.0,-100.00,SSW,195,7.0,12.0,51,0.00,,,-99.99,,2013-02-19 05:02:00,
2013-02-19 00:12:00,48.0,30.0,-100.00,SSW,195,9.0,13.0,49,0.00,,,-99.99,,2013-02-19 05:12:00,
2013-02-19 00:22:00,47.0,30.0,-100.00,South,190,9.0,12.0,50,0.00,,,-99.99,,2013-02-19 05:22:00,
2013-02-19 00:32:00,47.0,30.0,-100.00,South,190,11.0,14.0,49,0.00,,,-99.99,,2013-02-19 05:32:00,
2013-02-19 00:43:00,47.0,30.0,-100.00,SSW,200,9.0,12.0,51,0.00,,,-99.99,,2013-02-19 05:43:00,
2013-02-19 00:52:00,48.0,30.0,-100.00,SSW,200,9.0,19.0,49,0.00,,,-99.99,,2013-02-19 05:52:00,
2013-02-19 01:03:00,47.0,31.0,-100.00,SSW,205,6.0,19.0,53,0.55,,,-99.99,,2013-02-19 06:03:00,
2013-02-19 01:12:00,47.0,32.0,-100.00,SSW,200,6.0,14.0,55,0.00,,,-99.99,,2013-02-19 06:12:00,
2013-02-19 01:22:00,47.0,32.0,-100.00,SSW,195,4.0,9.0,56,0.00,,,-99.99,,2013-02-19 06:22:00,
2013-02-19 01:32:00,46.0,33.0,-100.00,SSW,205,5.0,7.0,59,0.00,,,-99.99,,2013-02-19 06:32:00,
2013-02-19 01:42:00,46.0,34.0,-100.00,SSW,205,7.0,16.0,63,1.69,,,-99.99,,2013-02-19 06:42:00,
2013-02-19 01:52:00,44.0,35.0,-100.00,SSW,200,7.0,19.0,70,1.69,,,-99.99,,2013-02-19 06:52:00,
2013-02-19 02:02:00,43.0,35.0,-100.00,SSW,205,8.0,16.0,75,1.69,,,-99.99,,2013-02-19 07:02:00,
2013-02-19 02:11:00,42.0,36.0,-100.00,SSW,195,9.0,13.0,79,1.10,,,-99.99,,2013-02-19 07:11:00,
2013-02-19 02:22:00,41.0,37.0,-100.00,SSW,195,6.0,14.0,83,1.69,,,-99.99,,2013-02-19 07:22:00,
2013-02-19 02:32:00,41.0,37.0,-100.00,SSW,195,6.0,9.0,84,0.55,,,-99.99,,2013-02-19 07:32:00,
2013-02-19 02:42:00,41.0,37.0,-100.00,South,190,6.0,9.0,85,0.55,,,-99.99,,2013-02-19 07:42:00,
2013-02-19 02:52:00,42.0,37.0,-100.00,SSW,205,9.0,15.0,83,0.55,,,-99.99,,2013-02-19 07:52:00,
2013-02-19 03:02:00,42.0,37.0,-100.00,South,190,7.0,13.0,84,0.00,,,-99.99,,2013-02-19 08:02:00,
2013-02-19 03:11:00,42.0,37.0,-100.00,SSW,195,11.0,19.0,81,0.00,,,-99.99,,2013-02-19 08:11:00,
2013-02-19 03:21:00,42.0,37.0,-100.00,South,185,11.0,17.0,82,0.00,,,-99.99,,2013-02-19 08:21:00,
2013-02-19 03:32:00,41.0,37.0,-100.00,South,190,11.0,20.0,83,0.00,,,-99.99,,2013-02-19 08:32:00,
2013-02-19 03:42:00,41.0,37.0,-100.00,South,190,9.0,18.0,84,0.00,,,-99.99,,2013-02-19 08:42:00,
2013-02-19 03:52:00,40.0,37.0,-100.00,South,175,7.0,13.0,86,0.00,,,-99.99,,2013-02-19 08:52:00,
2013-02-19 04:02:00,40.0,37.0,-100.00,South,185,8.0,12.0,88,0.00,,,-99.99,,2013-02-19 09:02:00,
2013-02-19 04:11:00,40.0,37.0,-100.00,South,185,7.0,16.0,87,0.00,,,-99.99,,2013-02-19 09:11:00,
2013-02-19 04:22:00,40.0,37.0,-100.00,SSE,165,7.0,14.0,88,0.00,,,-99.99,,2013-02-19 09:22:00,
2013-02-19 04:32:00,41.0,37.0,-100.00,South,190,10.0,22.0,84,0.00,,,-99.99,,2013-02-19 09:32:00,
2013-02-19 04:42:00,40.0,37.0,-100.00,South,185,7.0,12.0,87,0.55,,,-99.99,,2013-02-19 09:42:00,
2013-02-19 04:52:00,40.0,37.0,-100.00,South,190,9.0,18.0,87,0.00,,,-99.99,,2013-02-19 09:52:00,
2013-02-19 05:02:00,40.0,37.0,-100.00,South,190,9.0,15.0,87,0.55,,,-99.99,,2013-02-19 10:02:00,
2013-02-19 05:11:00,41.0,37.0,-100.00,SSW,195,10.0,15.0,87,0.55,,,-99.99,,2013-02-19 10:11:00,
2013-02-19 05:22:00,41.0,37.0,-100.00,South,185,9.0,16.0,87,0.00,,,-99.99,,2013-02-19 10:22:00,
2013-02-19 05:32:00,41.0,37.0,-100.00,South,190,9.0,15.0,87,0.00,,,-99.99,,2013-02-19 10:32:00,
2013-02-19 05:42:00,41.0,37.0,-100.00,South,190,11.0,16.0,85,0.00,,,-99.99,,2013-02-19 10:42:00,
2013-02-19 05:51:00,42.0,37.0,-100.00,South,185,11.0,17.0,83,0.00,,,-99.99,,2013-02-19 10:51:00,
2013-02-19 06:01:00,42.0,37.0,-100.00,South,190,13.0,17.0,82,0.00,,,-99.99,,2013-02-19 11:01:00,
2013-02-19 06:11:00,42.0,37.0,-100.00,South,190,12.0,19.0,82,0.00,,,-99.99,,2013-02-19 11:11:00,
2013-02-19 06:22:00,42.0,37.0,-100.00,SSW,205,11.0,18.0,81,0.00,,,-99.99,,2013-02-19 11:22:00,
2013-02-19 06:32:00,42.0,37.0,-100.00,SSW,195,12.0,21.0,83,0.00,,,-99.99,,2013-02-19 11:32:00,
2013-02-19 06:42:00,42.0,37.0,-100.00,SSW,200,14.0,21.0,82,0.00,,,-99.99,,2013-02-19 11:42:00,
2013-02-19 06:52:00,42.0,37.0,-100.00,SSW,195,13.0,21.0,82,0.00,,,-99.99,,2013-02-19 11:52:00,
2013-02-19 07:02:00,42.0,37.0,-100.00,SSW,200,9.0,19.0,82,0.00,,,-99.99,,2013-02-19 12:02:00,
2013-02-19 07:12:00,42.0,38.0,-100.00,SSW,200,11.0,19.0,83,0.00,,,-99.99,,2013-02-19 12:12:00,
2013-02-19 07:22:00,42.0,38.0,-100.00,SSW,195,12.0,21.0,82,0.00,,,-99.99,,2013-02-19 12:22:00,
2013-02-19 07:32:00,42.0,38.0,-100.00,SSW,200,11.0,17.0,85,1.10,,,-99.99,,2013-02-19 12:32:00,
2013-02-19 07:42:00,42.0,38.0,-100.00,SSW,195,9.0,17.0,87,2.83,,,-99.99,,2013-02-19 12:42:00,
2013-02-19 07:52:00,42.0,38.0,-100.00,SSW,200,11.0,18.0,88,0.55,,,-99.99,,2013-02-19 12:52:00,
2013-02-19 08:02:00,41.0,38.0,-100.00,SSW,205,6.0,10.0,89,0.00,,,-99.99,,2013-02-19 13:02:00,
2013-02-19 08:11:00,37.0,35.0,-100.00,West,265,12.0,27.0,90,1.10,,,-99.99,,2013-02-19 13:11:00,
2013-02-19 08:22:00,35.0,33.0,-100.00,West,265,12.0,28.0,93,14.17,,,-99.99,,2013-02-19 13:22:00,
2013-02-19 08:32:00,34.0,33.0,-100.00,WSW,255,7.0,20.0,94,0.55,,,-99.99,,2013-02-19 13:32:00,
2013-02-19 08:42:00,34.0,32.0,-100.00,SW,230,7.0,19.0,94,1.69,,,-99.99,,2013-02-19 13:42:00,
2013-02-19 08:52:00,33.0,32.0,-100.00,West,260,7.0,16.0,94,2.24,,,-99.99,,2013-02-19 13:52:00,
2013-02-19 09:02:00,33.0,32.0,-100.00,SSW,210,5.0,16.0,95,3.39,,,-99.99,,2013-02-19 14:02:00,
2013-02-19 09:11:00,33.0,31.0,-100.00,SW,215,4.0,11.0,95,2.24,,,-99.99,,2013-02-19 14:11:00,
2013-02-19 09:22:00,33.0,31.0,-100.00,SW,215,4.0,11.0,95,2.24,,,-99.99,,2013-02-19 14:22:00,
2013-02-19 09:33:00,33.0,32.0,-100.00,West,270,12.0,25.0,96,0.00,,,-99.99,,2013-02-19 14:33:00,
2013-02-19 09:42:00,33.0,31.0,-100.00,WSW,255,14.0,27.0,92,0.00,,,-99.99,,2013-02-19 14:42:00,
2013-02-19 09:52:00,34.0,30.0,-100.00,West,265,9.0,25.0,85,0.55,,,-99.99,,2013-02-19 14:52:00,
2013-02-19 10:02:00,34.0,30.0,-100.00,West,265,9.0,25.0,85,0.55,,,-99.99,,2013-02-19 15:02:00,
2013-02-19 10:11:00,34.0,28.0,-100.00,West,280,10.0,26.0,80,0.00,,,-99.99,,2013-02-19 15:11:00,
2013-02-19 10:21:00,33.0,28.0,-100.00,West,265,12.0,26.0,79,0.00,,,-99.99,,2013-02-19 15:21:00,
2013-02-19 10:32:00,33.0,28.0,-100.00,West,265,12.0,26.0,79,0.00,,,-99.99,,2013-02-19 15:32:00,
2013-02-19 10:42:00,33.0,27.0,-100.00,WSW,240,7.0,21.0,78,0.00,,,-99.99,,2013-02-19 15:42:00,
2013-02-19 10:52:00,33.0,28.0,-100.00,West,260,15.0,25.0,79,0.00,,,-99.99,,2013-02-19 15:52:00,
2013-02-19 11:02:00,33.0,28.0,-100.00,West,260,15.0,25.0,79,0.00,,,-99.99,,2013-02-19 16:02:00,
2013-02-19 11:11:00,33.0,26.0,-100.00,West,265,15.0,25.0,77,0.00,,,-99.99,,2013-02-19 16:11:00,
2013-02-19 11:22:00,33.0,26.0,-100.00,West,270,15.0,34.0,75,0.00,,,-99.99,,2013-02-19 16:22:00,
2013-02-19 11:32:00,33.0,27.0,-100.00,West,270,7.0,19.0,78,0.00,,,-99.99,,2013-02-19 16:32:00,
2013-02-19 11:42:00,33.0,25.0,-100.00,West,270,17.0,29.0,74,0.00,,,-99.99,,2013-02-19 16:42:00,
2013-02-19 11:51:00,32.0,25.0,-100.00,West,265,12.0,28.0,73,0.00,,,-99.99,,2013-02-19 16:51:00,
2013-02-19 12:01:00,32.0,25.0,-100.00,West,270,9.0,24.0,74,0.00,,,-99.99,,2013-02-19 17:01:00,
2013-02-19 12:11:00,32.0,26.0,-100.00,West,260,9.0,25.0,76,0.00,,,-99.99,,2013-02-19 17:11:00,
2013-02-19 12:21:00,32.0,26.0,-100.00,West,280,11.0,24.0,76,0.00,,,-99.99,,2013-02-19 17:21:00,
2013-02-19 12:32:00,32.0,25.0,-100.00,West,280,13.0,25.0,77,0.00,,,-99.99,,2013-02-19 17:32:00,
2013-02-19 12:42:00,31.0,26.0,-100.00,West,265,10.0,23.0,79,0.00,,,-99.99,,2013-02-19 17:42:00,
2013-02-19 12:52:00,31.0,24.0,-100.00,West,270,14.0,29.0,78,0.00,,,-99.99,,2013-02-19 17:52:00,
2013-02-19 13:02:00,31.0,25.0,-100.00,West,270,9.0,21.0,80,0.00,,,-99.99,,2013-02-19 18:02:00,
2013-02-19 13:21:00,31.0,24.0,-100.00,West,260,11.0,24.0,74,0.00,,,-99.99,,2013-02-19 18:21:00,
2013-02-19 13:32:00,31.0,23.0,-100.00,West,270,11.0,21.0,72,0.00,,,-99.99,,2013-02-19 18:32:00,
2013-02-19 13:42:00,31.0,23.0,-100.00,WSW,245,10.0,23.0,72,0.00,,,-99.99,,2013-02-19 18:42:00,
2013-02-19 13:51:00,31.0,23.0,-100.00,West,265,8.0,26.0,72,0.00,,,-99.99,,2013-02-19 18:51:00,
2013-02-19 14:01:00,32.0,24.0,-100.00,West,275,13.0,21.0,72,0.00,,,-99.99,,2013-02-19 19:01:00,
2013-02-19 14:11:00,31.0,24.0,-100.00,West,270,11.0,24.0,74,0.00,,,-99.99,,2013-02-19 19:11:00,
2013-02-19 14:21:00,30.0,24.0,-100.00,West,270,11.0,24.0,77,0.00,,,-99.99,,2013-02-19 19:21:00,
2013-02-19 14:32:00,30.0,23.0,-100.00,West,265,9.0,22.0,75,0.00,,,-99.99,,2013-02-19 19:32:00,
2013-02-19 14:42:00,30.0,23.0,-100.00,West,270,12.0,23.0,75,0.00,,,-99.99,,2013-02-19 19:42:00,
2013-02-19 14:51:00,30.0,23.0,-100.00,West,265,11.0,24.0,77,0.00,,,-99.99,,2013-02-19 19:51:00,
2013-02-19 15:02:00,30.0,23.0,-100.00,West,265,11.0,24.0,77,0.00,,,-99.99,,2013-02-19 20:02:00,
2013-02-19 15:12:00,29.0,24.0,-100.00,SW,230,7.0,25.0,80,0.00,,,-99.99,,2013-02-19 20:12:00,
2013-02-19 15:21:00,29.0,23.0,-100.00,WSW,240,10.0,29.0,76,0.00,,,-99.99,,2013-02-19 20:21:00,
2013-02-19 15:32:00,29.0,22.0,-100.00,West,280,17.0,27.0,75,0.00,,,-99.99,,2013-02-19 20:32:00,
2013-02-19 15:42:00,29.0,20.0,-100.00,West,270,16.0,25.0,69,0.00,,,-99.99,,2013-02-19 20:42:00,
2013-02-19 15:52:00,30.0,20.0,-100.00,West,270,11.0,29.0,66,0.55,,,-99.99,,2013-02-19 20:52:00,
2013-02-19 16:02:00,30.0,19.0,-100.00,West,270,19.0,29.0,64,0.00,,,-99.99,,2013-02-19 21:02:00,
2013-02-19 16:11:00,30.0,20.0,-100.00,West,275,11.0,27.0,65,0.00,,,-99.99,,2013-02-19 21:11:00,
2013-02-19 16:21:00,29.0,20.0,-100.00,West,275,12.0,25.0,66,0.00,,,-99.99,,2013-02-19 21:21:00,
2013-02-19 16:32:00,30.0,20.0,-100.00,WSW,245,6.0,17.0,68,0.00,,,-99.99,,2013-02-19 21:32:00,
2013-02-19 16:42:00,29.0,21.0,-100.00,West,265,13.0,23.0,72,0.55,,,-99.99,,2013-02-19 21:42:00,
2013-02-19 16:51:00,28.0,23.0,-100.00,SW,235,6.0,23.0,80,0.00,,,-99.99,,2013-02-19 21:51:00,
2013-02-19 17:02:00,28.0,22.0,-100.00,West,275,14.0,26.0,80,0.00,,,-99.99,,2013-02-19 22:02:00,
2013-02-19 17:11:00,28.0,23.0,-100.00,West,280,9.0,16.0,83,0.55,,,-99.99,,2013-02-19 22:11:00,
2013-02-19 17:21:00,28.0,23.0,-100.00,West,270,13.0,22.0,83,0.00,,,-99.99,,2013-02-19 22:21:00,
2013-02-19 17:32:00,28.0,20.0,-100.00,West,270,14.0,25.0,72,0.00,,,-99.99,,2013-02-19 22:32:00,
2013-02-19 17:42:00,28.0,17.0,-100.00,West,275,15.0,27.0,61,0.00,,,-99.99,,2013-02-19 22:42:00,
2013-02-19 17:52:00,28.0,16.0,-100.00,West,280,16.0,34.0,60,0.00,,,-99.99,,2013-02-19 22:52:00,
2013-02-19 18:01:00,28.0,15.0,-100.00,West,270,17.0,27.0,60,0.00,,,-99.99,,2013-02-19 23:01:00,
2013-02-19 18:11:00,27.0,16.0,-100.00,West,275,16.0,30.0,61,0.00,,,-99.99,,2013-02-19 23:11:00,
2013-02-19 18:21:00,27.0,16.0,-100.00,West,270,12.0,24.0,63,0.00,,,-99.99,,2013-02-19 23:21:00,
2013-02-19 18:32:00,27.0,17.0,-100.00,West,275,14.0,24.0,65,0.00,,,-99.99,,2013-02-19 23:32:00,
2013-02-19 18:42:00,26.0,18.0,-100.00,West,275,12.0,20.0,69,0.00,,,-99.99,,2013-02-19 23:42:00,
2013-02-19 18:52:00,26.0,18.0,-100.00,West,275,9.0,22.0,71,0.00,,,-99.99,,2013-02-19 23:52:00,
2013-02-19 19:01:00,26.0,18.0,-100.00,West,270,13.0,20.0,70,0.00,,,-99.99,,2013-02-20 00:01:00,
2013-02-19 19:11:00,26.0,18.0,-100.00,West,270,12.0,23.0,71,0.00,,,-99.99,,2013-02-20 00:11:00,
2013-02-19 19:21:00,26.0,19.0,-100.00,West,265,6.0,33.0,71,0.00,,,-99.99,,2013-02-20 00:21:00,
2013-02-19 19:32:00,26.0,19.0,-100.00,SW,220,6.0,19.0,72,0.00,,,-99.99,,2013-02-20 00:32:00,
2013-02-19 19:42:00,26.0,18.0,-100.00,West,260,11.0,25.0,70,0.00,,,-99.99,,2013-02-20 00:42:00,
2013-02-19 19:52:00,26.0,16.0,-100.00,West,275,18.0,26.0,65,0.00,,,-99.99,,2013-02-20 00:52:00,
2013-02-19 20:02:00,26.0,16.0,-100.00,NW,305,12.0,22.0,66,0.00,,,-99.99,,2013-02-20 01:02:00,
2013-02-19 20:11:00,26.0,16.0,-100.00,NW,305,12.0,22.0,66,0.00,,,-99.99,,2013-02-20 01:11:00,
2013-02-19 20:21:00,26.0,16.0,-100.00,West,275,14.0,20.0,67,0.00,,,-99.99,,2013-02-20 01:21:00,
2013-02-19 20:32:00,25.0,15.0,-100.00,West,280,11.0,30.0,65,0.00,,,-99.99,,2013-02-20 01:32:00,
2013-02-19 20:42:00,25.0,15.0,-100.00,West,280,15.0,22.0,65,0.00,,,-99.99,,2013-02-20 01:42:00,
2013-02-19 20:52:00,25.0,15.0,-100.00,West,280,9.0,16.0,66,0.00,,,-99.99,,2013-02-20 01:52:00,
2013-02-19 21:02:00,25.0,15.0,-100.00,West,280,9.0,16.0,66,0.00,,,-99.99,,2013-02-20 02:02:00,
2013-02-19 21:11:00,24.0,16.0,-100.00,West,265,8.0,16.0,68,0.00,,,-99.99,,2013-02-20 02:11:00,
2013-02-19 21:21:00,25.0,16.0,-100.00,West,275,9.0,19.0,68,0.00,,,-99.99,,2013-02-20 02:21:00,
2013-02-19 21:32:00,25.0,16.0,-100.00,West,270,14.0,21.0,70,0.00,,,-99.99,,2013-02-20 02:32:00,
2013-02-19 21:42:00,24.0,16.0,-100.00,West,275,9.0,18.0,71,0.55,,,-99.99,,2013-02-20 02:42:00,
2013-02-19 21:52:00,23.0,16.0,-100.00,West,270,11.0,21.0,73,0.55,,,-99.99,,2013-02-20 02:52:00,
2013-02-19 22:02:00,23.0,15.0,-100.00,West,275,14.0,29.0,71,0.00,,,-99.99,,2013-02-20 03:02:00,
2013-02-19 22:12:00,23.0,15.0,-100.00,West,270,14.0,25.0,69,0.00,,,-99.99,,2013-02-20 03:12:00,
2013-02-19 22:22:00,23.0,15.0,-100.00,West,265,11.0,17.0,69,0.00,,,-99.99,,2013-02-20 03:22:00,
2013-02-19 22:32:00,23.0,14.0,-100.00,West,270,11.0,20.0,67,0.00,,,-99.99,,2013-02-20 03:32:00,
2013-02-19 22:42:00,23.0,14.0,-100.00,West,265,8.0,19.0,67,0.00,,,-99.99,,2013-02-20 03:42:00,
2013-02-19 22:52:00,23.0,15.0,-100.00,West,265,13.0,29.0,70,0.55,,,-99.99,,2013-02-20 03:52:00,
2013-02-19 23:01:00,23.0,14.0,-100.00,West,270,11.0,25.0,69,0.00,,,-99.99,,2013-02-20 04:01:00,
2013-02-19 23:11:00,23.0,13.0,-100.00,West,275,14.0,25.0,65,0.00,,,-99.99,,2013-02-20 04:11:00,
2013-02-19 23:21:00,22.0,12.0,-100.00,West,270,17.0,28.0,63,0.00,,,-99.99,,2013-02-20 04:21:00,
2013-02-19 23:32:00,22.0,11.0,-100.00,West,275,13.0,29.0,62,0.00,,,-99.99,,2013-02-20 04:32:00,
2013-02-19 23:42:00,22.0,11.0,-100.00,West,260,11.0,24.0,62,0.00,,,-99.99,,2013-02-20 04:42:00,
2013-02-19 23:52:00,22.0,12.0,-100.00,West,270,9.0,24.0,63,0.00,,,-99.99,,2013-02-20 04:52:00,